Time;durP1;ratioP1;P1;durP2;ratioP2;P2;SDS_P1;SDS_P2;PMS_P1;PMS_P2;Temp;Humidity;BMP_temperature;BMP_pressure;BME280_temperature;BME280_humidity;BME280_pressure;Samples;Min_cycle;Max_cycle;Signal;HPM_P1;HPM_P2
2023/06/30 00:01:25;;;;;;;1.40;0.85;;;;;;;15.21;73.88;101623.91;4989479;28;97006;-27
2023/06/30 00:03:52;;;;;;;1.90;0.90;;;;;;;15.21;73.95;101626.63;4990613;28;99643;-27
2023/06/30 00:06:17;;;;;;;3.70;0.85;;;;;;;15.19;74.04;101622.25;4989411;28;101354;-27
2023/06/30 00:08:43;;;;;;;1.23;0.60;;;;;;;15.19;74.15;101633.16;4990971;28;96411;-27
2023/06/30 00:11:09;;;;;;;2.30;0.95;;;;;;;15.12;74.27;101627.25;4990952;28;96902;-27
2023/06/30 00:13:34;;;;;;;1.25;0.60;;;;;;;15.09;74.19;101622.00;4989373;28;100975;-28
2023/06/30 00:16:00;;;;;;;1.17;0.60;;;;;;;15.10;74.24;101631.94;4991194;28;97727;-27
2023/06/30 00:18:25;;;;;;;1.50;0.70;;;;;;;15.05;74.38;101620.47;4990853;28;96597;-27
2023/06/30 00:20:50;;;;;;;3.13;0.80;;;;;;;15.04;74.14;101618.69;4990690;28;96606;-28
2023/06/30 00:23:15;;;;;;;2.30;0.60;;;;;;;15.00;74.43;101612.59;4988884;28;98751;-27
2023/06/30 00:25:41;;;;;;;1.20;0.70;;;;;;;15.02;74.26;101618.81;4990216;28;107463;-27
2023/06/30 00:28:06;;;;;;;2.78;0.60;;;;;;;14.97;74.12;101610.06;4990808;28;96614;-27
2023/06/30 00:30:31;;;;;;;2.60;0.73;;;;;;;14.98;74.24;101611.81;4990745;28;96812;-27
2023/06/30 00:32:57;;;;;;;1.40;0.60;;;;;;;14.99;74.36;101613.56;4990518;28;107831;-27
2023/06/30 00:35:24;;;;;;;2.10;0.65;;;;;;;14.94;73.73;101593.88;4990165;28;99256;-27
2023/06/30 00:37:49;;;;;;;2.08;0.75;;;;;;;15.04;73.57;101611.41;4948491;28;1205508;-27
2023/06/30 00:40:15;;;;;;;5.22;0.88;;;;;;;15.10;73.37;101610.09;4992248;28;102354;-30
2023/06/30 00:42:40;;;;;;;0.50;0.50;;;;;;;15.10;73.31;101610.09;4991720;28;98371;-27
2023/06/30 00:45:06;;;;;;;0.98;0.55;;;;;;;15.06;73.16;101600.38;4991762;28;97898;-27
2023/06/30 00:47:31;;;;;;;0.93;0.65;;;;;;;15.05;73.22;101601.34;4989765;28;98458;-27
2023/06/30 00:49:57;;;;;;;2.17;0.52;;;;;;;14.99;73.34;101602.66;4991908;28;96821;-27
2023/06/30 00:52:23;;;;;;;1.48;0.55;;;;;;;14.99;73.28;101609.94;4991512;28;99551;-27
2023/06/30 00:54:48;;;;;;;0.68;0.38;;;;;;;15.00;73.19;101606.25;4990148;28;98854;-28
2023/06/30 00:57:13;;;;;;;3.40;0.68;;;;;;;15.05;72.85;101618.59;4991714;28;96492;-27
2023/06/30 00:59:39;;;;;;;2.70;0.63;;;;;;;15.04;72.90;101613.22;4991578;28;96830;-27
2023/06/30 01:02:22;;;;;;;1.85;0.75;;;;;;;15.04;73.21;101615.97;4991540;28;97851;-27
2023/06/30 01:05:25;;;;;;;0.52;0.30;;;;;;;14.93;73.28;101588.56;4990546;28;100748;-28
2023/06/30 01:08:22;;;;;;;3.60;0.65;;;;;;;15.02;73.38;101615.22;4977541;28;96823;-27
2023/06/30 01:10:49;;;;;;;1.05;0.50;;;;;;;14.97;73.15;101606.44;4978995;28;96771;-27
2023/06/30 01:13:17;;;;;;;2.55;0.60;;;;;;;14.96;73.12;101604.72;4989396;28;101255;-27
2023/06/30 01:15:44;;;;;;;1.33;0.50;;;;;;;14.93;73.19;101604.94;4989867;28;101359;-27
2023/06/30 01:18:12;;;;;;;0.75;0.57;;;;;;;14.96;73.26;101610.16;4990078;28;96790;-27
2023/06/30 01:20:40;;;;;;;2.10;0.70;;;;;;;14.89;73.17;101603.38;4990009;28;96784;-28
2023/06/30 01:23:23;;;;;;;4.53;0.50;;;;;;;14.99;73.27;101607.22;4989714;28;101363;-28
2023/06/30 01:25:50;;;;;;;2.33;0.77;;;;;;;14.95;73.07;101598.38;4991111;28;97808;-27
2023/06/30 01:28:16;;;;;;;2.00;0.63;;;;;;;14.99;73.03;101609.94;4989894;28;96564;-27
2023/06/30 01:30:41;;;;;;;1.25;0.77;;;;;;;14.95;73.12;101603.84;4990329;28;96938;-27
2023/06/30 01:33:07;;;;;;;1.20;0.65;;;;;;;14.97;72.88;101603.72;4990968;28;99632;-27
2023/06/30 01:35:33;;;;;;;1.33;0.60;;;;;;;15.01;72.71;101617.06;4992669;28;98744;-26
2023/06/30 01:37:59;;;;;;;2.00;0.60;;;;;;;15.00;72.75;101611.72;4993318;28;96881;-27
2023/06/30 01:40:25;;;;;;;0.60;0.47;;;;;;;15.01;72.60;101608.88;4992936;28;97116;-28
2023/06/30 01:42:55;;;;;;;2.38;0.65;;;;;;;15.06;72.56;101617.63;4994505;28;96706;-27
2023/06/30 01:45:25;;;;;;;0.88;0.40;;;;;;;15.03;72.45;101603.31;4992916;28;100562;-27
2023/06/30 01:47:50;;;;;;;0.98;0.55;;;;;;;15.03;72.34;101603.31;4994453;28;96832;-27
2023/06/30 01:50:16;;;;;;;1.58;0.70;;;;;;;15.08;72.14;101596.56;4994900;28;96795;-27
2023/06/30 01:52:41;;;;;;;1.40;0.60;;;;;;;15.12;72.20;101601.81;4994357;28;97936;-27
2023/06/30 01:55:07;;;;;;;2.58;0.70;;;;;;;15.06;72.21;101593.09;4994520;28;98009;-27
2023/06/30 01:57:33;;;;;;;0.40;0.40;;;;;;;15.08;72.09;101590.22;4992830;28;96647;-27
2023/06/30 01:59:58;;;;;;;1.48;0.50;;;;;;;15.07;72.01;101592.09;4994499;28;96428;-27
2023/06/30 02:02:23;;;;;;;1.63;0.50;;;;;;;15.09;72.03;101589.25;4993692;28;97914;-27
2023/06/30 02:04:49;;;;;;;1.25;0.50;;;;;;;15.11;72.25;101598.22;4994006;28;99464;-27
2023/06/30 02:07:14;;;;;;;3.60;0.90;;;;;;;15.07;72.16;101592.09;4994252;28;96549;-27
2023/06/30 02:09:39;;;;;;;2.00;0.60;;;;;;;15.02;71.96;101588.81;4993836;28;96974;-28
2023/06/30 02:12:05;;;;;;;0.50;0.50;;;;;;;15.05;72.07;101588.59;4994103;28;97424;-27
2023/06/30 02:14:31;;;;;;;2.67;0.65;;;;;;;15.08;72.13;101585.63;4994392;28;97302;-28
2023/06/30 02:16:56;;;;;;;1.08;0.75;;;;;;;15.04;72.04;101581.38;4994171;28;96496;-27
2023/06/30 02:19:23;;;;;;;1.17;0.57;;;;;;;15.05;72.08;101588.59;4994472;28;96798;-27
2023/06/30 02:21:52;;;;;;;2.53;0.82;;;;;;;15.07;72.19;101591.22;4993835;28;97917;-27
2023/06/30 02:24:17;;;;;;;2.30;0.55;;;;;;;15.07;72.12;101588.50;4992051;28;101202;-28
2023/06/30 02:26:44;;;;;;;1.15;0.60;;;;;;;15.08;72.03;101582.03;4993440;28;96615;-27
2023/06/30 02:29:10;;;;;;;2.50;0.80;;;;;;;15.07;71.87;101588.50;4992437;28;96824;-28
2023/06/30 02:31:35;;;;;;;1.33;0.40;;;;;;;15.04;72.01;101578.66;4993802;28;97367;-28
2023/06/30 02:34:00;;;;;;;2.25;0.50;;;;;;;15.08;71.94;101587.50;4993794;28;97811;-27
2023/06/30 02:36:26;;;;;;;1.33;0.47;;;;;;;15.05;71.98;101585.00;4992754;28;96757;-27
2023/06/30 02:38:51;;;;;;;1.27;0.60;;;;;;;15.04;71.99;101580.50;4993590;28;96665;-27
2023/06/30 02:41:16;;;;;;;0.55;0.35;;;;;;;15.06;71.89;101590.34;4993678;28;98392;-27
2023/06/30 02:43:43;;;;;;;1.08;0.50;;;;;;;15.01;72.05;101589.75;4993782;28;97783;-28
2023/06/30 02:46:09;;;;;;;1.80;0.40;;;;;;;14.99;72.30;101588.13;4991004;28;96790;-27
2023/06/30 02:48:34;;;;;;;3.30;0.63;;;;;;;15.02;72.17;101596.13;4993542;28;96821;-27
2023/06/30 02:50:59;;;;;;;0.40;0.40;;;;;;;15.00;71.90;101595.34;4992968;28;98393;-27
2023/06/30 02:53:25;;;;;;;1.52;0.70;;;;;;;14.96;72.12;101586.47;4993447;28;97279;-26
2023/06/30 02:55:50;;;;;;;2.30;0.47;;;;;;;15.01;72.00;101597.94;4993128;28;97677;-28
2023/06/30 02:58:16;;;;;;;1.98;0.75;;;;;;;15.01;72.14;101597.94;4993543;28;96767;-27
2023/06/30 03:00:41;;;;;;;1.85;0.50;;;;;;;14.93;72.02;101583.97;4993515;28;97432;-27
2023/06/30 03:03:06;;;;;;;1.25;0.50;;;;;;;14.96;72.11;101589.22;4992914;28;98712;-27
2023/06/30 03:05:34;;;;;;;3.03;0.82;;;;;;;14.99;72.16;101602.66;4993312;28;96578;-28
2023/06/30 03:07:59;;;;;;;1.02;0.52;;;;;;;14.96;72.42;101588.34;4991856;28;96917;-27
2023/06/30 03:10:25;;;;;;;3.70;0.70;;;;;;;14.94;72.26;101593.03;4991559;28;100960;-27
2023/06/30 03:12:51;;;;;;;2.15;0.70;;;;;;;14.98;72.14;101597.31;4993388;28;97302;-27
2023/06/30 03:15:17;;;;;;;2.38;0.73;;;;;;;14.98;72.21;101589.97;4992487;28;96704;-27
2023/06/30 03:17:42;;;;;;;1.27;0.50;;;;;;;14.96;72.18;101586.47;4992893;28;96729;-27
2023/06/30 03:20:12;;;;;;;0.85;0.47;;;;;;;14.91;72.29;101572.28;4993000;28;97726;-27
2023/06/30 03:22:41;;;;;;;0.52;0.32;;;;;;;14.90;72.46;101577.84;4991193;28;100875;-27
2023/06/30 03:25:08;;;;;;;0.98;0.60;;;;;;;14.90;72.57;101580.56;4991580;28;96718;-28
2023/06/30 03:27:34;;;;;;;1.95;0.52;;;;;;;14.85;72.76;101580.91;4992766;28;96823;-27
2023/06/30 03:30:02;;;;;;;3.47;0.80;;;;;;;14.83;72.77;101589.19;4991252;28;101505;-28
2023/06/30 03:32:27;;;;;;;1.50;0.60;;;;;;;14.86;72.54;101588.09;4991619;28;99314;-27
2023/06/30 03:34:52;;;;;;;3.17;0.73;;;;;;;14.82;72.80;101589.28;4992695;28;96594;-28
2023/06/30 03:37:18;;;;;;;2.22;0.70;;;;;;;14.80;72.90;101586.66;4992240;28;96796;-27
2023/06/30 03:39:44;;;;;;;1.30;0.68;;;;;;;14.75;72.86;101580.63;4992460;28;97443;-27
2023/06/30 03:42:16;;;;;;;0.77;0.50;;;;;;;14.74;72.92;101594.38;4991200;28;100811;-28
2023/06/30 03:44:41;;;;;;;0.60;0.52;;;;;;;14.67;73.53;101585.72;4992767;28;96560;-27
2023/06/30 03:47:07;;;;;;;2.58;0.70;;;;;;;14.64;73.70;101588.69;4992780;28;96982;-27
2023/06/30 03:49:32;;;;;;;1.02;0.52;;;;;;;14.60;73.60;101584.41;4992580;28;97901;-27
2023/06/30 03:51:57;;;;;;;2.83;0.65;;;;;;;14.56;73.88;101580.13;4992526;28;97758;-28
2023/06/30 03:54:23;;;;;;;0.70;0.47;;;;;;;14.50;73.89;101581.38;4992721;28;96694;-27
2023/06/30 03:56:48;;;;;;;1.92;0.60;;;;;;;14.51;73.98;101587.69;4993058;28;96815;-26
2023/06/30 03:59:13;;;;;;;1.58;0.77;;;;;;;14.44;74.02;101585.41;4991759;28;99680;-27
2023/06/30 04:01:39;;;;;;;3.55;0.93;;;;;;;14.48;73.83;101587.91;4992326;28;97325;-28
2023/06/30 04:04:05;;;;;;;2.20;0.82;;;;;;;14.42;74.52;101584.63;4990274;28;96946;-29
2023/06/30 04:06:33;;;;;;;3.92;0.82;;;;;;;14.45;74.67;101581.69;4992330;28;96847;-27
2023/06/30 04:08:58;;;;;;;1.38;0.65;;;;;;;14.41;74.51;101576.53;4990884;28;99114;-27
2023/06/30 04:11:24;;;;;;;2.83;0.65;;;;;;;14.38;74.49;101574.88;4992136;28;97809;-27
2023/06/30 04:13:49;;;;;;;1.30;0.63;;;;;;;14.37;74.74;101575.88;4992416;28;96506;-27
2023/06/30 04:16:17;;;;;;;0.77;0.63;;;;;;;14.40;74.67;101578.38;4992217;28;96642;-28
2023/06/30 04:18:42;;;;;;;2.95;1.15;;;;;;;14.36;74.74;101573.22;4990587;28;101234;-26
2023/06/30 04:21:07;;;;;;;0.80;0.60;;;;;;;14.40;74.94;101574.78;4992424;28;97815;-28
2023/06/30 04:23:33;;;;;;;3.67;0.90;;;;;;;14.35;74.90;101558.75;4992071;28;96461;-27
2023/06/30 04:25:58;;;;;;;1.73;0.80;;;;;;;14.39;75.00;101567.56;4991864;28;97619;-27
2023/06/30 04:28:24;;;;;;;0.88;0.57;;;;;;;14.38;75.48;101563.97;4991642;28;98215;-27
2023/06/30 04:30:49;;;;;;;4.10;0.75;;;;;;;14.40;75.45;101570.22;4991833;28;99633;-27
2023/06/30 04:33:14;;;;;;;2.70;0.68;;;;;;;14.43;75.31;101580.03;4992086;28;96485;-28
2023/06/30 04:35:44;;;;;;;3.13;0.60;;;;;;;14.47;75.31;101577.97;4991723;28;96889;-27
2023/06/30 04:38:09;;;;;;;1.92;0.77;;;;;;;14.43;75.09;101564.53;4989745;28;101157;-27
2023/06/30 04:40:35;;;;;;;1.13;0.75;;;;;;;14.50;75.22;101572.31;4973990;28;100840;-27
2023/06/30 04:43:02;;;;;;;0.80;0.63;;;;;;;14.54;75.30;101573.88;4991910;28;96672;-28
2023/06/30 04:45:27;;;;;;;0.88;0.50;;;;;;;14.53;75.06;101570.25;4992106;28;96601;-27
2023/06/30 04:47:52;;;;;;;1.70;0.95;;;;;;;14.56;75.37;101577.38;4991819;28;97425;-27
2023/06/30 04:50:18;;;;;;;0.95;0.63;;;;;;;14.55;74.85;101568.34;4991428;28;98965;-27
2023/06/30 04:52:43;;;;;;;1.92;0.93;;;;;;;14.66;75.50;101581.28;4991351;28;96421;-27
2023/06/30 04:55:09;;;;;;;0.70;0.60;;;;;;;14.69;75.00;101583.78;4991970;28;96747;-27
2023/06/30 04:57:34;;;;;;;3.53;0.95;;;;;;;14.71;75.38;101581.81;4990144;28;100891;-28
2023/06/30 05:00:00;;;;;;;1.60;0.93;;;;;;;14.74;75.11;101576.16;4991656;28;97842;-27
2023/06/30 05:02:25;;;;;;;2.55;0.90;;;;;;;14.78;75.36;101574.97;4991581;28;96643;-27
2023/06/30 05:04:51;;;;;;;1.85;0.68;;;;;;;14.83;75.01;101578.28;4991713;28;96977;-27
2023/06/30 05:07:16;;;;;;;1.95;0.90;;;;;;;14.88;74.96;101577.97;4991533;28;98080;-28
2023/06/30 05:09:42;;;;;;;1.15;0.80;;;;;;;14.94;74.70;101582.13;4992608;28;99497;-27
2023/06/30 05:12:08;;;;;;;3.15;1.00;;;;;;;15.02;74.51;101583.34;4995110;28;96537;-27
2023/06/30 05:14:33;;;;;;;1.92;0.98;;;;;;;15.03;74.48;101578.75;4995045;28;96788;-27
2023/06/30 05:16:58;;;;;;;2.97;1.00;;;;;;;15.12;74.45;101574.53;4994404;28;98053;-29
2023/06/30 05:19:24;;;;;;;2.72;0.80;;;;;;;15.21;74.08;101573.91;4994423;28;100124;-27
2023/06/30 05:21:50;;;;;;;3.80;0.65;;;;;;;15.21;74.00;101566.56;4994646;28;96688;-27
2023/06/30 05:24:16;;;;;;;1.73;0.75;;;;;;;15.33;73.84;101574.91;4993376;28;96866;-27
2023/06/30 05:26:42;;;;;;;1.48;0.90;;;;;;;15.38;74.06;101573.59;4993096;28;104204;-27
2023/06/30 05:29:09;;;;;;;2.95;0.93;;;;;;;15.43;73.68;101565.94;4993219;28;101061;-27
2023/06/30 05:31:34;;;;;;;2.33;1.00;;;;;;;15.51;73.54;101568.97;4993576;28;96567;-28
2023/06/30 05:34:00;;;;;;;2.03;0.77;;;;;;;15.57;73.39;101562.25;4994975;28;96814;-27
2023/06/30 05:36:25;;;;;;;1.75;0.63;;;;;;;15.70;73.27;101564.97;4993666;28;97520;-29
2023/06/30 05:38:50;;;;;;;1.42;0.75;;;;;;;15.71;73.90;101566.75;4994571;28;97299;-27
2023/06/30 05:41:16;;;;;;;1.88;0.77;;;;;;;15.79;73.60;101567.06;4994204;28;96616;-27
2023/06/30 05:43:41;;;;;;;1.17;0.75;;;;;;;15.85;73.65;101568.47;4994550;28;97539;-27
2023/06/30 05:46:06;;;;;;;1.40;0.82;;;;;;;15.94;73.22;101570.53;4994543;28;97406;-27
2023/06/30 05:48:32;;;;;;;2.33;0.88;;;;;;;16.05;72.93;101573.38;4994222;28;97291;-27
2023/06/30 05:50:57;;;;;;;6.10;0.85;;;;;;;16.21;72.96;101575.84;4994518;28;96528;-28
2023/06/30 05:53:22;;;;;;;1.38;0.77;;;;;;;16.28;72.73;101568.06;4994461;28;96801;-27
2023/06/30 05:55:48;;;;;;;7.05;1.02;;;;;;;16.34;73.20;101563.00;4994060;28;99418;-27
2023/06/30 05:58:13;;;;;;;1.02;0.77;;;;;;;16.45;72.62;101564.09;4994321;28;99202;-27
2023/06/30 06:00:39;;;;;;;1.25;0.90;;;;;;;16.60;72.05;101564.78;4994306;28;96615;-27
2023/06/30 06:03:04;;;;;;;1.10;0.80;;;;;;;16.67;71.94;101566.94;4992549;28;96884;-28
2023/06/30 06:05:29;;;;;;;1.90;0.90;;;;;;;16.82;71.73;101567.66;4992192;28;98864;-27
2023/06/30 06:07:55;;;;;;;1.52;0.85;;;;;;;16.95;71.95;101563.00;4993999;28;97397;-27
2023/06/30 06:10:20;;;;;;;5.63;1.00;;;;;;;17.05;71.27;101565.03;4993914;28;96507;-27
2023/06/30 06:12:45;;;;;;;1.90;0.80;;;;;;;17.13;71.27;101562.56;4994101;28;96667;-27
2023/06/30 06:15:11;;;;;;;3.85;1.05;;;;;;;17.24;70.97;101565.34;4993978;28;97936;-27
2023/06/30 06:17:36;;;;;;;3.08;0.85;;;;;;;17.34;70.38;101568.22;4993652;28;99080;-27
2023/06/30 06:20:02;;;;;;;2.45;1.08;;;;;;;17.42;70.32;101557.53;4994086;28;96545;-27
2023/06/30 06:22:27;;;;;;;2.67;0.85;;;;;;;17.52;69.96;101558.56;4994273;28;96773;-27
2023/06/30 06:24:53;;;;;;;4.25;1.30;;;;;;;17.61;70.25;101551.44;4993855;28;97934;-27
2023/06/30 06:27:18;;;;;;;5.03;0.98;;;;;;;17.77;69.48;101568.41;4993705;28;98683;-27
2023/06/30 06:29:43;;;;;;;1.55;1.10;;;;;;;17.89;69.22;101574.81;4993760;28;96591;-28
2023/06/30 06:32:09;;;;;;;2.05;0.85;;;;;;;18.00;68.63;101572.06;4993686;28;96827;-27
2023/06/30 06:34:34;;;;;;;1.75;1.00;;;;;;;18.06;68.39;101558.84;4993643;28;97074;-28
2023/06/30 06:37:00;;;;;;;2.42;0.88;;;;;;;18.16;68.59;101560.72;4992670;28;99075;-27
2023/06/30 06:39:25;;;;;;;3.63;1.35;;;;;;;18.28;68.14;101564.28;4993777;28;96669;-27
2023/06/30 06:41:51;;;;;;;2.50;1.17;;;;;;;18.48;67.37;101576.38;4993567;28;96830;-27
2023/06/30 06:44:16;;;;;;;7.15;1.17;;;;;;;18.61;67.32;101573.47;4993191;28;99340;-27
2023/06/30 06:46:43;;;;;;;2.83;1.15;;;;;;;18.63;66.67;101569.59;4993701;28;97337;-27
2023/06/30 06:49:08;;;;;;;3.15;1.27;;;;;;;18.70;66.05;101567.19;4992007;28;96561;-27
2023/06/30 06:51:33;;;;;;;1.40;0.90;;;;;;;18.80;65.47;101565.44;4993433;28;96757;-28
2023/06/30 06:53:59;;;;;;;1.00;0.88;;;;;;;18.81;65.07;101569.09;4992679;28;103699;-27
2023/06/30 06:56:24;;;;;;;2.15;0.70;;;;;;;18.90;65.57;101562.78;4993407;28;97266;-27
2023/06/30 06:58:52;;;;;;;3.95;0.90;;;;;;;19.13;65.10;101563.56;4993452;28;96589;-28
2023/06/30 07:01:17;;;;;;;1.88;1.08;;;;;;;19.29;64.40;101563.97;4993360;28;96743;-27
2023/06/30 07:03:43;;;;;;;1.77;1.10;;;;;;;19.38;64.06;101554.06;4992795;28;98848;-27
2023/06/30 07:06:08;;;;;;;1.27;0.98;;;;;;;19.55;63.29;101557.22;4993271;28;98230;-27
2023/06/30 07:08:35;;;;;;;3.67;0.70;;;;;;;19.58;62.30;101563.28;4992384;28;96573;-31
2023/06/30 07:11:02;;;;;;;4.55;0.70;;;;;;;19.68;63.19;101571.63;4989913;28;97048;-27
2023/06/30 07:13:28;;;;;;;2.40;0.70;;;;;;;19.80;62.17;101565.03;4990712;28;97970;-30
2023/06/30 07:15:53;;;;;;;3.70;0.68;;;;;;;19.95;60.57;101571.06;4990629;28;97259;-28
2023/06/30 07:18:20;;;;;;;1.38;0.77;;;;;;;20.00;61.28;101566.00;4990735;28;96989;-29
2023/06/30 07:20:50;;;;;;;2.30;0.80;;;;;;;20.09;60.28;101565.19;4990165;28;96843;-30
2023/06/30 07:23:16;;;;;;;1.25;0.60;;;;;;;20.01;59.23;101561.38;4989915;28;101269;-27
2023/06/30 07:25:43;;;;;;;1.80;0.80;;;;;;;19.97;59.48;101566.28;4993025;28;97774;-27
2023/06/30 07:28:09;;;;;;;3.58;0.80;;;;;;;20.13;59.69;101557.50;4992660;28;96541;-27
2023/06/30 07:30:36;;;;;;;1.35;0.90;;;;;;;20.23;59.74;101558.41;4992523;28;97056;-27
2023/06/30 07:33:02;;;;;;;3.60;1.00;;;;;;;20.37;59.37;101562.66;4990709;28;99742;-27
2023/06/30 07:35:27;;;;;;;1.52;0.77;;;;;;;20.53;59.37;101564.88;4991382;28;101070;-27
2023/06/30 07:37:52;;;;;;;2.55;0.75;;;;;;;20.64;58.70;101564.78;4992261;28;96624;-28
2023/06/30 07:40:18;;;;;;;1.40;0.93;;;;;;;20.81;58.11;101559.56;4992577;28;97089;-27
2023/06/30 07:42:44;;;;;;;1.30;0.80;;;;;;;20.91;56.64;101547.56;4991772;28;99317;-29
2023/06/30 07:45:18;;;;;;;3.65;0.95;;;;;;;21.12;56.83;101552.91;4990839;28;101586;-27
2023/06/30 07:47:48;;;;;;;2.92;0.95;;;;;;;21.25;57.58;101555.34;4991492;28;96559;-27
2023/06/30 07:50:14;;;;;;;2.15;1.15;;;;;;;21.37;56.73;101556.94;4992493;28;96903;-27
2023/06/30 07:52:43;;;;;;;2.05;0.98;;;;;;;21.52;56.55;101551.84;4992741;28;97536;-27
2023/06/30 07:55:10;;;;;;;4.60;0.75;;;;;;;21.57;56.32;101543.13;4991565;28;101256;-26
2023/06/30 07:57:35;;;;;;;1.60;0.70;;;;;;;21.40;56.69;101544.78;4990852;28;96749;-28
2023/06/30 08:00:01;;;;;;;1.55;1.00;;;;;;;21.52;56.78;101545.47;4992974;28;96769;-27
2023/06/30 08:02:27;;;;;;;1.42;0.77;;;;;;;21.64;56.07;101536.00;4990803;28;102092;-27
2023/06/30 08:04:52;;;;;;;0.90;0.80;;;;;;;21.55;54.98;101540.53;4992322;28;97789;-27
2023/06/30 08:07:17;;;;;;;2.03;0.77;;;;;;;21.45;56.57;101536.91;4991858;28;96676;-27
2023/06/30 08:09:43;;;;;;;1.45;0.85;;;;;;;21.47;54.51;101542.28;4992087;28;96908;-27
2023/06/30 08:12:09;;;;;;;2.88;1.02;;;;;;;21.47;56.27;101539.53;4992012;28;97868;-29
2023/06/30 08:14:35;;;;;;;1.90;0.80;;;;;;;21.31;55.85;101542.88;4990546;28;101124;-27
2023/06/30 08:17:02;;;;;;;1.15;0.80;;;;;;;21.22;55.42;101544.63;4992346;28;96670;-28
2023/06/30 08:19:27;;;;;;;1.98;0.60;;;;;;;21.05;56.71;101549.00;4974400;28;96900;-27
2023/06/30 08:21:52;;;;;;;6.30;1.00;;;;;;;20.78;57.44;101544.19;4992020;28;97862;-27
2023/06/30 08:24:18;;;;;;;1.10;0.60;;;;;;;20.65;57.26;101543.63;4992279;28;97289;-27
2023/06/30 08:26:43;;;;;;;1.02;0.63;;;;;;;20.71;57.50;101549.44;4991360;28;103101;-27
2023/06/30 08:29:08;;;;;;;1.48;0.82;;;;;;;20.82;57.20;101539.28;4992559;28;96796;-27
2023/06/30 08:31:34;;;;;;;0.80;0.65;;;;;;;20.81;56.05;101534.78;4990155;28;97752;-27
2023/06/30 08:33:59;;;;;;;1.13;0.63;;;;;;;20.71;55.46;101538.41;4991902;28;97467;-27
2023/06/30 08:36:24;;;;;;;1.20;0.60;;;;;;;20.67;56.31;101536.97;4991332;28;99123;-27
2023/06/30 08:38:50;;;;;;;2.20;0.77;;;;;;;20.82;57.02;101520.00;4992268;28;96627;-27
2023/06/30 08:41:15;;;;;;;1.52;0.70;;;;;;;20.75;56.13;101531.59;4991678;28;99812;-27
2023/06/30 08:43:41;;;;;;;2.30;0.60;;;;;;;20.65;56.61;101541.75;4991365;28;100296;-26
2023/06/30 08:46:08;;;;;;;1.17;0.75;;;;;;;20.58;56.39;101526.81;4994927;28;96631;-27
2023/06/30 08:48:35;;;;;;;2.05;0.57;;;;;;;20.55;56.44;101527.06;4994178;28;96856;-27
2023/06/30 08:51:02;;;;;;;1.20;0.95;;;;;;;20.40;56.87;101517.47;4993789;28;101038;-27
2023/06/30 08:53:28;;;;;;;2.80;1.05;;;;;;;20.34;57.10;101518.91;4993785;28;99171;-27
2023/06/30 08:55:57;;;;;;;1.80;0.70;;;;;;;20.30;57.50;101511.94;4992989;28;96986;-27
2023/06/30 08:58:22;;;;;;;1.75;0.60;;;;;;;20.34;57.63;101511.53;4995561;28;96754;-27
2023/06/30 09:00:47;;;;;;;1.55;0.77;;;;;;;20.51;57.01;101507.19;4994878;28;98863;-26
2023/06/30 09:03:13;;;;;;;2.00;0.65;;;;;;;20.54;57.07;101506.91;4995127;28;97767;-27
2023/06/30 09:05:40;;;;;;;1.88;0.60;;;;;;;20.51;57.23;101498.94;4995322;28;96679;-27
2023/06/30 09:08:17;;;;;;;2.10;0.90;;;;;;;20.43;56.48;101514.44;4993662;28;96731;-26
2023/06/30 09:10:43;;;;;;;3.97;0.70;;;;;;;20.50;55.92;101499.97;4993569;28;100992;-27
2023/06/30 09:13:10;;;;;;;1.92;0.63;;;;;;;20.70;55.82;101498.13;4995086;28;99394;-28
2023/06/30 09:15:36;;;;;;;2.78;0.70;;;;;;;20.89;55.59;101497.25;4993606;28;96720;-27
2023/06/30 09:18:02;;;;;;;1.70;0.90;;;;;;;20.88;54.58;101498.28;4993527;28;96819;-27
2023/06/30 09:20:27;;;;;;;1.80;0.73;;;;;;;21.07;55.08;101497.38;4994236;28;99863;-26
2023/06/30 09:22:53;;;;;;;1.27;0.63;;;;;;;21.41;53.99;101497.78;4994658;28;97846;-28
2023/06/30 09:25:27;;;;;;;1.70;0.77;;;;;;;21.61;52.94;101498.56;4994932;28;96591;-26
2023/06/30 09:27:55;;;;;;;2.80;0.60;;;;;;;21.63;52.15;101482.75;4994898;28;96816;-27
2023/06/30 09:30:32;;;;;;;3.70;0.70;;;;;;;21.45;51.95;101489.19;4993174;28;101196;-27
2023/06/30 09:32:57;;;;;;;1.20;0.70;;;;;;;21.52;52.07;101495.84;4994863;28;98201;-27
2023/06/30 09:35:23;;;;;;;1.92;0.60;;;;;;;21.76;51.46;101478.78;4994220;28;97011;-27
2023/06/30 09:37:48;;;;;;;1.90;0.63;;;;;;;22.08;52.33;101485.75;4994409;28;96699;-27
2023/06/30 09:40:24;;;;;;;1.00;0.70;;;;;;;22.18;51.06;101486.53;4993449;28;98183;-27
2023/06/30 09:42:53;;;;;;;2.15;0.63;;;;;;;22.41;50.56;101487.88;4993008;28;99852;-27
2023/06/30 09:45:19;;;;;;;1.63;0.70;;;;;;;22.55;50.19;101480.06;4993912;28;96527;-27
2023/06/30 09:47:54;;;;;;;2.10;0.55;;;;;;;22.61;48.92;101483.06;4993040;28;97102;-27
2023/06/30 09:50:32;;;;;;;1.75;0.70;;;;;;;22.59;49.33;101487.00;4992912;28;101466;-27
2023/06/30 09:52:58;;;;;;;1.88;0.63;;;;;;;22.57;49.74;101478.00;4994078;28;99198;-27
2023/06/30 09:55:23;;;;;;;1.65;0.82;;;;;;;22.50;48.75;101483.31;4992547;28;96618;-27
2023/06/30 09:57:52;;;;;;;2.78;0.80;;;;;;;22.42;48.30;101474.94;4994609;28;96640;-27
2023/06/30 10:00:17;;;;;;;2.75;0.70;;;;;;;22.26;48.73;101481.13;4992818;28;101282;-28
2023/06/30 10:02:43;;;;;;;2.25;0.82;;;;;;;22.13;50.89;101480.63;4994561;28;97293;-27
2023/06/30 10:05:10;;;;;;;2.50;1.00;;;;;;;22.16;50.77;101470.13;4992725;28;96644;-27
2023/06/30 10:07:37;;;;;;;1.42;0.80;;;;;;;22.14;50.29;101472.16;4992757;28;96724;-27
2023/06/30 10:10:03;;;;;;;1.95;0.80;;;;;;;22.08;51.61;101477.47;4992205;28;100880;-27
2023/06/30 10:12:33;;;;;;;4.65;0.90;;;;;;;22.25;50.59;101460.97;4994107;28;97806;-28
2023/06/30 10:15:00;;;;;;;2.75;0.90;;;;;;;22.24;50.18;101473.03;4992473;28;96686;-27
2023/06/30 10:17:27;;;;;;;1.58;0.80;;;;;;;22.12;50.96;101462.31;4992748;28;97016;-28
2023/06/30 10:19:53;;;;;;;1.60;0.98;;;;;;;22.46;50.77;101466.19;4992462;28;101071;-27
2023/06/30 10:22:19;;;;;;;1.67;0.65;;;;;;;22.68;49.92;101463.97;4994007;28;97922;-27
2023/06/30 10:24:47;;;;;;;1.70;0.88;;;;;;;22.58;50.35;101468.72;4992359;28;96777;-27
2023/06/30 10:27:18;;;;;;;2.05;0.65;;;;;;;22.37;50.36;101467.13;4992828;28;96575;-27
2023/06/30 10:29:45;;;;;;;2.78;0.95;;;;;;;22.15;50.07;101462.03;4993877;28;98171;-27
2023/06/30 10:32:11;;;;;;;0.85;0.60;;;;;;;22.19;50.76;101457.91;4993632;28;98403;-27
2023/06/30 10:34:37;;;;;;;1.30;0.82;;;;;;;22.30;49.17;101456.88;5001631;28;96931;-27
2023/06/30 10:37:03;;;;;;;2.42;0.90;;;;;;;22.56;49.45;101451.44;4997914;28;100915;-27
2023/06/30 10:39:37;;;;;;;1.58;0.73;;;;;;;22.96;48.63;101447.28;5001153;28;101593;-27
2023/06/30 10:42:04;;;;;;;3.08;1.20;;;;;;;23.36;48.10;101449.50;5013107;28;99170;-27
2023/06/30 10:44:37;;;;;;;4.82;1.00;;;;;;;23.45;49.01;101447.63;5013626;28;96646;-27
2023/06/30 10:47:03;;;;;;;3.05;0.80;;;;;;;23.51;48.00;101435.94;5012019;28;96871;-27
2023/06/30 10:49:33;;;;;;;1.63;0.68;;;;;;;23.34;48.42;101451.56;5013525;28;97877;-29
2023/06/30 10:52:00;;;;;;;2.42;0.93;;;;;;;23.38;46.40;101449.31;5010995;28;103409;-28
2023/06/30 10:54:28;;;;;;;5.95;1.00;;;;;;;23.49;46.29;101441.63;5010470;28;96774;-28
2023/06/30 10:57:08;;;;;;;3.55;0.80;;;;;;;23.85;45.87;101446.16;5010423;28;96954;-30
2023/06/30 10:59:40;;;;;;;1.77;0.85;;;;;;;23.68;46.59;101434.97;5009775;28;100975;-29
2023/06/30 11:02:17;;;;;;;1.10;0.60;;;;;;;23.64;46.77;101441.00;5010263;28;101345;-27
2023/06/30 11:04:47;;;;;;;1.42;0.75;;;;;;;23.58;47.43;101442.53;5011955;28;96770;-32
2023/06/30 11:07:28;;;;;;;1.35;0.77;;;;;;;23.49;46.06;101446.28;5010240;28;96852;-27
2023/06/30 11:09:53;;;;;;;1.60;0.52;;;;;;;23.51;47.46;101433.16;5011645;28;100898;-27
2023/06/30 11:12:19;;;;;;;1.55;0.75;;;;;;;23.41;47.41;101435.19;5012811;28;99208;-26
2023/06/30 11:14:58;;;;;;;2.30;0.85;;;;;;;23.27;46.86;101428.38;5011742;28;96588;-26
2023/06/30 11:17:26;;;;;;;1.60;0.90;;;;;;;23.38;46.48;101429.97;5011951;28;96757;-28
2023/06/30 11:20:12;;;;;;;2.42;1.10;;;;;;;23.26;45.11;101413.69;5011378;28;101185;-27
2023/06/30 11:22:39;;;;;;;3.13;0.75;;;;;;;23.20;46.46;101419.84;5012864;28;99199;-27